This is the latest recevied weather packets stored in our database for station/object F4IEI-10. If no packets are shown the sender has not sent any weather packets the latest 10 day(s).
| Time | Temp. | Humidity | Pressure | Rain* | Wind** | Luminosity | Snow |
|---|---|---|---|---|---|---|---|
| 1778223528 | 17.78° C | 68% | 1017.1 hPa | - | - | - | - |
| 1778219927 | 11.11° C | 84% | 1016.8 hPa | - | - | - | - |
| 1778216327 | 2.78° C | 100% | 1017 hPa | - | - | - | - |
| 1778212729 | 2.22° C | 100% | 1016.7 hPa | - | - | - | - |
| 1778210929 | 2.22° C | 100% | 1016.8 hPa | - | - | - | - |
| 1778207329 | 2.22° C | 100% | 1016.7 hPa | - | - | - | - |
| 1778204629 | 2.78° C | 99% | 1016.7 hPa | - | - | - | - |
| 1778202829 | 2.78° C | 100% | 1016.9 hPa | - | - | - | - |
| 1778201029 | 3.33° C | 100% | 1017.1 hPa | - | - | - | - |
| 1778199229 | 3.33° C | 81% | 1016.9 hPa | - | - | - | - |
| 1778198329 | 3.89° C | 89% | 1016.9 hPa | - | - | - | - |
| 1778197429 | 3.89° C | 78% | 1017 hPa | - | - | - | - |
| 1778196529 | 3.89° C | 92% | 1017 hPa | - | - | - | - |
| 1778195629 | 4.44° C | 76% | 1017 hPa | - | - | - | - |
| 1778194729 | 4.44° C | 78% | 1017 hPa | - | - | - | - |
| 1778193830 | 4.44° C | 80% | 1017.2 hPa | - | - | - | - |
| 1778192930 | 5° C | 87% | 1017.2 hPa | - | - | - | - |
| 1778192029 | 5° C | 84% | 1017.1 hPa | - | - | - | - |
| 1778191129 | 5° C | 93% | 1017.1 hPa | - | - | - | - |
| 1778190229 | 5.56° C | 100% | 1017.1 hPa | - | - | - | - |
| 1778189329 | 6.11° C | 82% | 1017.2 hPa | - | - | - | - |
| 1778188429 | 6.11° C | 84% | 1017.1 hPa | - | - | - | - |
| 1778187529 | 6.67° C | 78% | 1017 hPa | - | - | - | - |
| 1778186629 | 6.67° C | 78% | 1017 hPa | - | - | - | - |
| 1778185729 | 6.67° C | 81% | 1016.9 hPa | - | - | - | - |
* Rain since midnight (hover to see other rain measurements)
** Current wind speed in m/s (hover to see current wind gust speed)